This is the latest recevied weather packets stored in our database for station/object N4TLC. If no packets are shown the sender has not sent any weather packets the latest 1 day(s).
| Time | Temp. | Humidity | Pressure | Rain* | Wind** | Luminosity | Snow |
|---|---|---|---|---|---|---|---|
| 1836274713 | 18.89° C | 85% | 1020.3 hPa | 0 mm | 0 m/s | 0 W/m² | - |
| 1836274566 | 18.89° C | 84% | 1020.1 hPa | 0 mm | 0.45 m/s, 95° | 0 W/m² | - |
| 1836274412 | 18.89° C | 85% | 1020.3 hPa | 0 mm | 0.45 m/s, 89° | 0 W/m² | - |
| 1836274265 | 18.89° C | 84% | 1020.2 hPa | 0 mm | 0 m/s | 0 W/m² | - |
| 1836274110 | 18.89° C | 84% | 1020.1 hPa | 0 mm | 0 m/s | 0 W/m² | - |
| 1778049010 | 17.22° C | 68% | 1015.9 hPa | 0 mm | 0.45 m/s, 180° | 0 W/m² | - |
| 1778048708 | 17.22° C | 68% | 1016 hPa | 0 mm | 0.89 m/s, 146° | 0 W/m² | - |
| 1778048405 | 17.22° C | 67% | 1016 hPa | 0 mm | 1.34 m/s, 122° | 0 W/m² | - |
| 1778048101 | 17.22° C | 67% | 1016 hPa | 0 mm | 0.89 m/s, 128° | 0 W/m² | - |
| 1778047799 | 17.22° C | 66% | 1015.8 hPa | 0 mm | 2.24 m/s, 144° | 0 W/m² | - |
| 1778047497 | 17.22° C | 66% | 1015.8 hPa | 0 mm | 1.34 m/s, 140° | 0 W/m² | - |
| 1778047193 | 17.78° C | 65% | 1016.1 hPa | 0 mm | 0.89 m/s, 116° | 0 W/m² | - |
| 1778046891 | 17.78° C | 65% | 1016.2 hPa | 0 mm | 0.89 m/s, 129° | 0 W/m² | - |
| 1778046587 | 17.78° C | 65% | 1016.1 hPa | 0 mm | 1.34 m/s, 153° | 0 W/m² | - |
| 1778046284 | 17.78° C | 64% | 1015.9 hPa | 0 mm | 1.34 m/s, 122° | 0 W/m² | - |
| 1778045980 | 17.78° C | 64% | 1016.2 hPa | 0 mm | 0.89 m/s, 127° | 0 W/m² | - |
| 1778045678 | 17.78° C | 64% | 1016.2 hPa | 0 mm | 1.34 m/s, 138° | 0 W/m² | - |
| 1778045376 | 17.78° C | 63% | 1016.2 hPa | 0 mm | 1.34 m/s, 155° | 0 W/m² | - |
| 1778045075 | 17.78° C | 63% | 1016.1 hPa | 0 mm | 0.89 m/s, 147° | 0 W/m² | - |
| 1778044772 | 17.78° C | 62% | 1016.1 hPa | 0 mm | 1.34 m/s, 127° | 0 W/m² | - |
| 1778044469 | 17.78° C | 62% | 1016 hPa | 0 mm | 1.34 m/s, 132° | 0 W/m² | - |
| 1778044166 | 17.78° C | 61% | 1016.1 hPa | 0 mm | 0.89 m/s, 92° | 0 W/m² | - |
| 1778043863 | 18.33° C | 61% | 1016.3 hPa | 0 mm | 1.79 m/s, 139° | 0 W/m² | - |
| 1778043560 | 18.33° C | 60% | 1016.2 hPa | 0 mm | 1.79 m/s, 143° | 0 W/m² | - |
| 1778043257 | 18.33° C | 60% | 1016.2 hPa | 0 mm | 1.34 m/s, 159° | 0 W/m² | - |
* Rain latest hour (hover to see other rain measurements)
** Current wind speed in m/s (hover to see current wind gust speed)